createdAt,value
2022-07-25T00:01:39.148Z,25.40
2022-07-25T00:04:09.922Z,25.40
2022-07-25T00:06:40.611Z,25.40
2022-07-25T00:09:09.005Z,25.40
2022-07-25T00:11:37.096Z,25.30
2022-07-25T00:14:06.057Z,25.30
2022-07-25T00:16:34.752Z,25.30
2022-07-25T00:19:03.300Z,25.40
2022-07-25T00:21:32.787Z,25.40
2022-07-25T00:24:00.887Z,25.30
2022-07-25T00:26:29.112Z,25.10
2022-07-25T00:28:57.220Z,24.60
2022-07-25T00:31:27.869Z,24.50
2022-07-25T00:33:56.202Z,24.60
2022-07-25T00:36:24.395Z,24.80
2022-07-25T00:38:53.829Z,24.90
2022-07-25T00:41:22.021Z,24.90
2022-07-25T00:43:50.178Z,24.80
2022-07-25T00:46:19.284Z,24.50
2022-07-25T00:48:50.941Z,24.20
2022-07-25T00:51:19.416Z,24.40
2022-07-25T00:53:47.923Z,24.60
2022-07-25T00:56:18.106Z,24.80
2022-07-25T00:58:46.811Z,24.80
2022-07-25T01:01:15.004Z,24.60
2022-07-25T01:03:43.175Z,24.50
2022-07-25T01:06:11.276Z,24.60
2022-07-25T01:08:40.039Z,24.80
2022-07-25T01:11:08.257Z,24.80
2022-07-25T01:13:37.784Z,24.90
2022-07-25T01:16:06.860Z,25.00
2022-07-25T01:18:35.514Z,25.00
2022-07-25T01:21:05.227Z,25.10
2022-07-25T01:23:33.533Z,25.10
2022-07-25T01:26:01.751Z,25.20
2022-07-25T01:28:29.845Z,25.30
2022-07-25T01:30:58.009Z,25.30
2022-07-25T01:33:26.463Z,25.20
2022-07-25T01:35:54.582Z,25.00
2022-07-25T01:38:24.084Z,25.00
2022-07-25T01:40:52.321Z,25.00
2022-07-25T01:43:20.422Z,24.90
2022-07-25T01:45:48.567Z,24.60
2022-07-25T01:48:16.949Z,24.40
2022-07-25T01:50:48.547Z,24.50
2022-07-25T01:53:17.196Z,24.70
2022-07-25T01:55:47.586Z,24.70
2022-07-25T01:58:17.870Z,24.80
2022-07-25T02:00:46.829Z,24.90
2022-07-25T02:03:33.305Z,24.90
2022-07-25T02:06:03.175Z,25.00
2022-07-25T02:08:32.176Z,24.80
2022-07-25T02:11:02.692Z,24.60
2022-07-25T02:13:30.875Z,24.60
2022-07-25T02:15:59.080Z,24.70
2022-07-25T02:18:27.237Z,24.80
2022-07-25T02:20:55.392Z,24.90
2022-07-25T02:23:23.583Z,24.90
2022-07-25T02:25:51.817Z,25.00
2022-07-25T02:28:21.324Z,25.00
2022-07-25T02:30:49.461Z,25.00
2022-07-25T02:33:17.719Z,25.00
2022-07-25T02:35:45.958Z,25.00
2022-07-25T02:38:19.587Z,24.90
2022-07-25T02:40:48.042Z,24.90
2022-07-25T02:43:16.699Z,24.80
2022-07-25T02:45:46.866Z,24.80
2022-07-25T02:48:15.093Z,24.80
2022-07-25T02:50:43.122Z,24.70
2022-07-25T02:53:11.374Z,24.60
2022-07-25T02:55:39.586Z,24.60
2022-07-25T02:58:07.906Z,24.60
2022-07-25T03:00:36.233Z,24.60
2022-07-25T03:03:05.772Z,24.60
2022-07-25T03:05:33.997Z,24.60
2022-07-25T03:08:02.117Z,24.60
2022-07-25T03:10:30.219Z,24.50
2022-07-25T03:12:58.371Z,24.50
2022-07-25T03:15:26.636Z,24.50
2022-07-25T03:17:56.722Z,24.60
2022-07-25T03:20:26.366Z,24.60
2022-07-25T03:22:54.535Z,24.60
2022-07-25T03:25:22.712Z,24.50
2022-07-25T03:27:51.272Z,24.40
2022-07-25T03:30:19.518Z,24.30
2022-07-25T03:32:47.881Z,24.30
2022-07-25T03:35:16.614Z,24.20
2022-07-25T03:37:46.084Z,24.30
2022-07-25T03:40:15.906Z,24.10
2022-07-25T03:42:44.444Z,23.90
2022-07-25T03:45:12.801Z,23.70
2022-07-25T03:47:40.972Z,23.60
2022-07-25T03:50:09.822Z,23.40
2022-07-25T03:52:38.463Z,23.50
2022-07-25T03:55:10.558Z,23.50
2022-07-25T03:57:39.028Z,23.60
2022-07-25T04:00:09.839Z,23.60
2022-07-25T04:02:38.615Z,23.80
2022-07-25T04:05:07.587Z,24.00
2022-07-25T04:07:36.346Z,24.10
2022-07-25T04:10:04.987Z,24.20
2022-07-25T04:12:34.705Z,23.90
2022-07-25T04:15:03.095Z,23.70
2022-07-25T04:17:31.233Z,23.80
2022-07-25T04:19:59.912Z,24.00
2022-07-25T04:22:28.014Z,24.00
2022-07-25T04:24:56.178Z,24.10
2022-07-25T04:27:24.380Z,24.10
2022-07-25T04:29:53.819Z,24.20
2022-07-25T04:32:23.663Z,24.20
2022-07-25T04:34:52.583Z,24.20
2022-07-25T04:37:20.732Z,24.30
2022-07-25T04:39:50.874Z,24.40
2022-07-25T04:42:18.931Z,24.40
2022-07-25T04:44:47.003Z,24.40
2022-07-25T04:47:16.531Z,24.40
2022-07-25T04:49:44.567Z,24.40
2022-07-25T04:52:12.721Z,24.40
2022-07-25T04:54:40.898Z,24.30
2022-07-25T04:57:09.044Z,24.20
2022-07-25T04:59:37.097Z,24.20
2022-07-25T05:02:05.350Z,24.00
2022-07-25T05:04:34.936Z,24.00
2022-07-25T05:07:03.188Z,23.90
2022-07-25T05:09:31.287Z,24.00
2022-07-25T05:11:59.410Z,24.00
2022-07-25T05:14:27.781Z,24.10
2022-07-25T05:16:56.169Z,24.00
2022-07-25T05:19:24.531Z,23.90
2022-07-25T05:21:54.370Z,23.80
2022-07-25T05:24:23.038Z,23.90
2022-07-25T05:26:51.601Z,23.90
2022-07-25T05:29:19.689Z,23.90
2022-07-25T05:31:47.923Z,24.10
2022-07-25T05:34:16.035Z,24.10
2022-07-25T05:36:47.205Z,24.20
2022-07-25T05:39:17.026Z,24.10
2022-07-25T05:41:45.142Z,23.70
2022-07-25T05:44:13.379Z,23.50
2022-07-25T05:46:41.842Z,23.50
2022-07-25T05:49:10.098Z,23.50
2022-07-25T05:51:38.308Z,23.50
2022-07-25T05:54:06.808Z,23.50
2022-07-25T05:56:36.764Z,23.60
2022-07-25T05:59:04.965Z,23.60
2022-07-25T06:01:33.107Z,23.70
2022-07-25T06:04:01.381Z,23.70
2022-07-25T06:06:32.707Z,23.70
2022-07-25T06:09:03.077Z,23.80
2022-07-25T06:11:48.674Z,23.80
2022-07-25T06:14:22.938Z,23.90
2022-07-25T06:16:51.234Z,23.90
2022-07-25T06:19:19.601Z,24.00
2022-07-25T06:21:47.679Z,24.10
2022-07-25T06:24:15.806Z,24.20
2022-07-25T06:26:45.470Z,24.20
2022-07-25T06:29:13.560Z,24.30
2022-07-25T06:31:41.723Z,24.50
2022-07-25T06:34:14.392Z,24.50
2022-07-25T06:36:42.638Z,24.70
2022-07-25T06:39:10.932Z,24.80
2022-07-25T06:41:39.098Z,24.80
2022-07-25T06:44:09.130Z,24.90
2022-07-25T06:46:37.589Z,25.00
2022-07-25T06:49:05.908Z,24.90
2022-07-25T06:51:34.481Z,25.00
2022-07-25T06:54:03.293Z,25.00
2022-07-25T06:56:33.205Z,25.00
2022-07-25T06:59:01.665Z,25.10
2022-07-25T07:01:31.219Z,25.20
2022-07-25T07:03:59.367Z,25.20
2022-07-25T07:06:27.502Z,25.30
2022-07-25T07:08:56.164Z,25.40
2022-07-25T07:11:24.399Z,25.40
2022-07-25T07:13:52.509Z,25.50
2022-07-25T07:16:20.738Z,25.50
2022-07-25T07:18:50.262Z,25.60
2022-07-25T07:21:21.407Z,25.70
2022-07-25T07:23:49.812Z,25.70
2022-07-25T07:26:22.075Z,25.80
2022-07-25T07:28:54.512Z,25.80
2022-07-25T07:31:22.739Z,25.80
2022-07-25T07:33:52.533Z,25.80
2022-07-25T07:36:20.646Z,25.80
2022-07-25T07:38:49.321Z,26.00
2022-07-25T07:41:17.445Z,26.00
2022-07-25T07:43:45.519Z,26.10
2022-07-25T07:46:14.012Z,26.10
2022-07-25T07:48:42.681Z,26.20
2022-07-25T07:51:12.212Z,26.20
2022-07-25T07:53:58.077Z,26.30
2022-07-25T07:56:26.223Z,26.20
2022-07-25T07:58:54.376Z,26.30
2022-07-25T08:01:22.498Z,26.40
2022-07-25T08:03:50.669Z,26.40
2022-07-25T08:06:20.149Z,26.40
2022-07-25T08:08:48.532Z,26.50
2022-07-25T08:11:16.662Z,26.50
2022-07-25T08:13:44.717Z,26.60
2022-07-25T08:16:14.106Z,26.70
2022-07-25T08:18:42.214Z,26.80
2022-07-25T08:21:10.928Z,26.80
2022-07-25T08:23:40.366Z,26.90
2022-07-25T08:26:08.923Z,26.90
2022-07-25T08:28:39.292Z,27.00
2022-07-25T08:31:08.612Z,27.10
2022-07-25T08:33:36.752Z,27.20
2022-07-25T08:36:05.086Z,27.20
2022-07-25T08:38:35.340Z,27.30
2022-07-25T08:41:05.258Z,27.30
2022-07-25T08:43:35.040Z,27.40
2022-07-25T08:46:04.074Z,27.50
2022-07-25T08:48:32.709Z,27.50
2022-07-25T08:51:01.253Z,27.50
2022-07-25T08:53:33.063Z,27.60
2022-07-25T08:56:05.506Z,27.70
2022-07-25T08:58:41.478Z,27.70
2022-07-25T09:01:10.131Z,27.70
2022-07-25T09:03:38.551Z,27.80
2022-07-25T09:06:16.418Z,27.80
2022-07-25T09:08:52.923Z,27.90
2022-07-25T09:11:31.879Z,28.00
2022-07-25T09:14:05.240Z,28.00
2022-07-25T09:16:35.842Z,28.10
2022-07-25T09:19:12.706Z,28.20
2022-07-25T09:21:42.893Z,28.30
2022-07-25T09:24:16.037Z,28.30
2022-07-25T09:26:46.902Z,28.40
2022-07-25T09:29:24.754Z,28.50
2022-07-25T09:31:55.639Z,28.60
2022-07-25T09:34:34.806Z,28.70
2022-07-25T09:37:03.580Z,28.70
2022-07-25T09:39:35.998Z,28.80
2022-07-25T09:42:04.519Z,28.80
2022-07-25T09:44:36.611Z,28.90
2022-07-25T09:47:12.574Z,29.00
2022-07-25T09:49:45.248Z,29.10
2022-07-25T09:52:14.018Z,29.10
2022-07-25T09:54:42.422Z,29.20
2022-07-25T09:57:10.898Z,29.20
2022-07-25T09:59:40.548Z,29.20
2022-07-25T10:02:13.075Z,29.30
2022-07-25T10:04:48.246Z,29.40
2022-07-25T10:07:20.586Z,29.40
2022-07-25T10:09:50.780Z,29.50
2022-07-25T10:12:22.095Z,29.60
2022-07-25T10:15:12.299Z,29.70
2022-07-25T10:17:42.488Z,29.70
2022-07-25T10:20:11.771Z,29.70
2022-07-25T10:22:56.181Z,29.80
2022-07-25T10:25:25.098Z,29.90
2022-07-25T10:28:01.105Z,29.90
2022-07-25T10:30:36.074Z,30.00
2022-07-25T10:33:06.612Z,30.20
2022-07-25T10:35:34.968Z,30.20
2022-07-25T10:38:07.782Z,30.30
2022-07-25T10:40:39.194Z,30.30
2022-07-25T10:43:12.955Z,30.40
2022-07-25T10:45:50.245Z,30.50
2022-07-25T10:48:24.003Z,30.50
2022-07-25T10:50:55.921Z,30.60
2022-07-25T10:53:39.486Z,30.60
2022-07-25T10:56:09.930Z,30.70
2022-07-25T10:58:49.772Z,30.80
2022-07-25T11:01:24.050Z,31.00
2022-07-25T11:03:53.479Z,31.10
2022-07-25T11:06:32.811Z,31.20
2022-07-25T11:09:01.516Z,31.30
2022-07-25T11:11:37.326Z,31.40
2022-07-25T11:14:06.736Z,31.50
2022-07-25T11:16:36.386Z,31.50
2022-07-25T11:19:04.911Z,31.60
2022-07-25T11:21:33.161Z,31.60
2022-07-25T11:24:01.417Z,31.60
2022-07-25T11:26:29.584Z,31.70
2022-07-25T11:28:57.654Z,31.70
2022-07-25T11:31:26.183Z,31.70
2022-07-25T11:33:55.914Z,31.70
2022-07-25T11:36:24.181Z,31.70
2022-07-25T11:38:52.473Z,31.70
2022-07-25T11:41:30.654Z,31.70
2022-07-25T11:43:58.848Z,31.80
2022-07-25T11:46:27.654Z,31.80
2022-07-25T11:49:05.905Z,31.80
2022-07-25T11:51:38.822Z,31.90
2022-07-25T11:54:13.348Z,31.90
2022-07-25T11:56:43.910Z,32.00
2022-07-25T11:59:12.667Z,32.00
2022-07-25T12:01:42.676Z,32.10
2022-07-25T12:04:15.321Z,32.10
2022-07-25T12:06:43.713Z,32.10
2022-07-25T12:09:18.276Z,32.20
2022-07-25T12:11:48.981Z,32.20
2022-07-25T12:14:17.546Z,32.20
2022-07-25T12:16:45.777Z,32.20
2022-07-25T12:19:22.911Z,32.30
2022-07-25T12:21:51.000Z,32.40
2022-07-25T12:24:19.101Z,32.40
2022-07-25T12:26:47.493Z,32.40
2022-07-25T12:29:15.564Z,32.50
2022-07-25T12:31:43.775Z,32.60
2022-07-25T12:34:11.845Z,32.60
2022-07-25T12:36:45.014Z,32.60
2022-07-25T12:39:13.243Z,32.60
2022-07-25T12:41:42.851Z,32.70
2022-07-25T12:44:11.320Z,32.70
2022-07-25T12:46:47.156Z,32.70
2022-07-25T12:49:17.275Z,32.80
2022-07-25T12:51:46.907Z,32.80
2022-07-25T12:54:21.674Z,32.80
2022-07-25T12:56:50.844Z,32.90
2022-07-25T12:59:19.069Z,32.90
2022-07-25T13:01:47.254Z,33.00
2022-07-25T13:04:15.462Z,33.00
2022-07-25T13:06:43.817Z,33.00
2022-07-25T13:09:13.318Z,33.00
2022-07-25T13:11:42.433Z,33.00
2022-07-25T13:14:10.555Z,33.00
2022-07-25T13:16:39.025Z,33.10
2022-07-25T13:19:07.963Z,33.20
2022-07-25T13:21:37.810Z,33.30
2022-07-25T13:24:07.151Z,33.30
2022-07-25T13:26:37.773Z,33.30
2022-07-25T13:29:08.654Z,33.30
2022-07-25T13:31:38.490Z,33.30
2022-07-25T13:34:06.719Z,33.30
2022-07-25T13:36:34.949Z,33.40
2022-07-25T13:39:03.464Z,33.40
2022-07-25T13:41:31.712Z,33.50
2022-07-25T13:44:01.548Z,33.60
2022-07-25T13:46:29.683Z,33.60
2022-07-25T13:48:57.788Z,33.60
2022-07-25T13:51:25.962Z,33.70
2022-07-25T13:53:54.175Z,33.80
2022-07-25T13:56:22.361Z,33.80
2022-07-25T13:58:50.394Z,33.90
2022-07-25T14:01:19.949Z,34.10
2022-07-25T14:03:48.545Z,34.10
2022-07-25T14:06:16.713Z,34.20
2022-07-25T14:08:44.881Z,34.30
2022-07-25T14:11:12.975Z,34.40
2022-07-25T14:13:41.165Z,34.40
2022-07-25T14:16:09.615Z,34.50
2022-07-25T14:18:39.174Z,34.50
2022-07-25T14:21:07.401Z,34.50
2022-07-25T14:23:35.633Z,34.50
2022-07-25T14:26:03.872Z,34.50
2022-07-25T14:28:32.020Z,34.70
2022-07-25T14:31:00.211Z,34.90
2022-07-25T14:33:28.426Z,35.40
2022-07-25T14:35:57.967Z,36.20
2022-07-25T14:38:26.158Z,37.10
2022-07-25T14:40:54.198Z,38.10
2022-07-25T14:43:22.362Z,39.00
2022-07-25T14:45:50.417Z,39.70
2022-07-25T14:48:18.542Z,40.30
2022-07-25T14:50:46.669Z,40.60
2022-07-25T14:53:16.309Z,40.90
2022-07-25T14:55:44.433Z,41.20
2022-07-25T14:58:13.531Z,41.50
2022-07-25T15:00:43.543Z,41.60
2022-07-25T15:03:11.714Z,41.80
2022-07-25T15:05:39.853Z,42.00
2022-07-25T15:08:08.453Z,41.90
2022-07-25T15:10:37.880Z,41.40
2022-07-25T15:13:30.872Z,40.50
2022-07-25T15:15:54.412Z,39.40
2022-07-25T15:18:22.984Z,38.40
2022-07-25T15:20:52.017Z,37.60
2022-07-25T15:23:21.053Z,37.00
2022-07-25T15:26:06.036Z,36.40
2022-07-25T15:28:35.294Z,36.00
2022-07-25T15:31:03.661Z,35.70
2022-07-25T15:33:32.428Z,35.40
2022-07-25T15:36:01.017Z,35.20
2022-07-25T15:38:30.779Z,35.00
2022-07-25T15:41:00.386Z,34.80
2022-07-25T15:43:28.822Z,34.70
2022-07-25T15:45:56.871Z,34.60
2022-07-25T15:48:27.589Z,34.50
2022-07-25T15:50:58.844Z,34.50
2022-07-25T15:53:26.924Z,34.30
2022-07-25T15:55:55.226Z,34.20
2022-07-25T15:58:24.767Z,34.20
2022-07-25T16:00:52.952Z,34.10
2022-07-25T16:03:21.581Z,34.20
2022-07-25T16:05:49.807Z,34.50
2022-07-25T16:08:18.483Z,34.80
2022-07-25T16:10:46.583Z,35.00
2022-07-25T16:13:14.689Z,35.10
2022-07-25T16:15:44.376Z,35.00
2022-07-25T16:18:12.506Z,35.00
2022-07-25T16:20:40.600Z,34.90
2022-07-25T16:23:08.946Z,34.70
2022-07-25T16:25:37.122Z,34.60
2022-07-25T16:28:07.377Z,34.40
2022-07-25T16:30:35.875Z,34.20
2022-07-25T16:33:05.760Z,34.20
2022-07-25T16:35:33.875Z,34.10
2022-07-25T16:38:02.123Z,33.90
2022-07-25T16:40:31.006Z,33.90
2022-07-25T16:42:59.830Z,33.80
2022-07-25T16:45:28.949Z,33.70
2022-07-25T16:47:57.420Z,33.70
2022-07-25T16:50:26.897Z,33.60
2022-07-25T16:52:55.120Z,33.60
2022-07-25T16:55:23.467Z,33.50
2022-07-25T16:57:51.646Z,33.50
2022-07-25T17:00:20.868Z,33.40
2022-07-25T17:02:49.782Z,33.30
2022-07-25T17:05:18.463Z,33.20
2022-07-25T17:07:57.093Z,33.20
2022-07-25T17:10:26.980Z,33.10
2022-07-25T17:12:55.325Z,33.00
2022-07-25T17:15:24.118Z,33.00
2022-07-25T17:17:52.351Z,32.90
2022-07-25T17:20:20.558Z,32.90
2022-07-25T17:22:50.141Z,32.90
2022-07-25T17:25:18.262Z,32.90
2022-07-25T17:27:46.538Z,32.80
2022-07-25T17:30:14.733Z,32.70
2022-07-25T17:32:42.964Z,32.70
2022-07-25T17:35:11.459Z,32.70
2022-07-25T17:37:39.492Z,32.60
2022-07-25T17:40:10.703Z,32.60
2022-07-25T17:42:44.868Z,32.50
2022-07-25T17:45:14.022Z,32.50
2022-07-25T17:47:42.996Z,32.40
2022-07-25T17:50:12.361Z,32.30
2022-07-25T17:52:40.811Z,32.30
2022-07-25T17:55:12.054Z,32.20
2022-07-25T17:57:42.929Z,32.10
2022-07-25T18:00:12.559Z,32.10
2022-07-25T18:02:41.002Z,32.10
2022-07-25T18:05:09.867Z,31.90
2022-07-25T18:07:40.779Z,31.80
2022-07-25T18:10:10.617Z,31.70
2022-07-25T18:12:38.752Z,31.50
2022-07-25T18:15:08.151Z,31.40
2022-07-25T18:17:36.337Z,31.30
2022-07-25T18:20:05.122Z,31.30
2022-07-25T18:22:33.224Z,31.10
2022-07-25T18:25:01.303Z,31.00
2022-07-25T18:27:30.775Z,30.90
2022-07-25T18:29:58.953Z,30.70
2022-07-25T18:32:27.206Z,30.60
2022-07-25T18:34:55.295Z,30.50
2022-07-25T18:37:23.400Z,30.50
2022-07-25T18:39:51.452Z,30.30
2022-07-25T18:42:19.681Z,30.30
2022-07-25T18:44:49.120Z,30.20
2022-07-25T18:47:17.427Z,30.10
2022-07-25T18:49:45.954Z,30.10
2022-07-25T18:52:14.043Z,30.10
2022-07-25T18:54:42.250Z,30.30
2022-07-25T18:57:10.443Z,30.40
2022-07-25T18:59:38.776Z,30.10
2022-07-25T19:02:08.278Z,30.00
2022-07-25T19:04:36.537Z,30.00
2022-07-25T19:07:04.609Z,29.90
2022-07-25T19:09:32.771Z,29.50
2022-07-25T19:12:01.267Z,29.10
2022-07-25T19:14:30.775Z,28.80
2022-07-25T19:16:59.158Z,28.30
2022-07-25T19:19:28.598Z,27.70
2022-07-25T19:21:56.690Z,27.30
2022-07-25T19:24:26.890Z,26.80
2022-07-25T19:26:56.180Z,26.60
2022-07-25T19:29:26.614Z,26.20
2022-07-25T19:31:54.839Z,25.90
2022-07-25T19:34:22.884Z,25.60
2022-07-25T19:36:52.447Z,25.90
2022-07-25T19:39:20.581Z,26.30
2022-07-25T19:41:49.723Z,26.50
2022-07-25T19:44:17.855Z,26.70
2022-07-25T19:46:46.439Z,26.70
2022-07-25T19:49:14.753Z,26.80
2022-07-25T19:51:43.059Z,26.80
2022-07-25T19:54:12.476Z,26.90
2022-07-25T19:56:40.550Z,27.00
2022-07-25T19:59:08.603Z,27.00
2022-07-25T20:01:36.885Z,26.80
2022-07-25T20:04:09.062Z,26.60
2022-07-25T20:06:37.574Z,26.30
2022-07-25T20:09:06.970Z,26.30
2022-07-25T20:11:37.233Z,26.30
2022-07-25T20:14:05.900Z,26.40
2022-07-25T20:16:34.398Z,26.30
2022-07-25T20:19:02.631Z,26.30
2022-07-25T20:21:31.299Z,26.30
2022-07-25T20:24:01.479Z,26.20
2022-07-25T20:26:29.590Z,26.20
2022-07-25T20:28:59.116Z,26.20
2022-07-25T20:31:27.383Z,26.20
2022-07-25T20:33:55.602Z,26.30
2022-07-25T20:36:23.721Z,26.20
2022-07-25T20:38:51.863Z,25.40
2022-07-25T20:41:20.119Z,25.20
2022-07-25T20:43:48.182Z,25.20
2022-07-25T20:46:17.827Z,25.40
2022-07-25T20:48:46.574Z,25.70
2022-07-25T20:51:14.869Z,25.80
2022-07-25T20:53:43.207Z,25.80
2022-07-25T20:56:11.318Z,25.80
2022-07-25T20:58:39.471Z,25.70
2022-07-25T21:01:07.612Z,25.80
2022-07-25T21:03:37.497Z,25.90
2022-07-25T21:06:05.905Z,25.40
2022-07-25T21:08:34.034Z,25.20
2022-07-25T21:11:02.098Z,25.20
2022-07-25T21:13:33.110Z,25.20
2022-07-25T21:16:01.552Z,25.00
2022-07-25T21:18:29.887Z,24.90
2022-07-25T21:20:59.506Z,24.80
2022-07-25T21:23:27.723Z,24.80
2022-07-25T21:25:56.131Z,24.80
2022-07-25T21:28:24.281Z,24.70
2022-07-25T21:30:54.421Z,24.60
2022-07-25T21:33:22.746Z,24.60
2022-07-25T21:35:53.257Z,24.10
2022-07-25T21:38:26.408Z,23.90
2022-07-25T21:40:55.853Z,23.70
2022-07-25T21:43:23.938Z,23.80
2022-07-25T21:45:52.320Z,24.00
2022-07-25T21:48:40.604Z,24.20
2022-07-25T21:51:19.083Z,24.40
2022-07-25T21:53:53.596Z,24.50
2022-07-25T21:56:21.918Z,24.60
2022-07-25T21:58:50.292Z,24.60
2022-07-25T22:01:20.626Z,24.60
2022-07-25T22:03:48.902Z,24.60
2022-07-25T22:06:17.022Z,24.40
2022-07-25T22:08:45.154Z,24.20
2022-07-25T22:11:20.720Z,23.70
2022-07-25T22:14:02.833Z,23.60
2022-07-25T22:16:30.936Z,23.90
2022-07-25T22:18:59.772Z,23.90
2022-07-25T22:21:28.115Z,23.80
2022-07-25T22:23:56.206Z,23.60
2022-07-25T22:26:25.792Z,23.40
2022-07-25T22:28:55.993Z,23.50
2022-07-25T22:31:24.112Z,23.30
2022-07-25T22:33:52.356Z,23.30
2022-07-25T22:36:20.741Z,23.30
2022-07-25T22:38:50.046Z,23.30
2022-07-25T22:41:18.184Z,23.30
2022-07-25T22:43:58.087Z,23.30
2022-07-25T22:46:27.790Z,23.00
2022-07-25T22:48:58.381Z,23.00
2022-07-25T22:51:26.818Z,22.80
2022-07-25T22:53:55.397Z,22.90
2022-07-25T22:56:23.938Z,23.20
2022-07-25T22:58:53.371Z,23.20
2022-07-25T23:01:21.922Z,23.00
2022-07-25T23:03:50.889Z,22.90
2022-07-25T23:06:20.951Z,22.90
2022-07-25T23:08:49.219Z,22.80
2022-07-25T23:11:17.704Z,22.60
2022-07-25T23:13:45.814Z,22.50
2022-07-25T23:16:15.550Z,22.60
2022-07-25T23:18:43.881Z,22.60
2022-07-25T23:21:12.317Z,22.60
2022-07-25T23:23:40.391Z,22.90
2022-07-25T23:26:08.569Z,23.00
2022-07-25T23:28:36.658Z,23.10
2022-07-25T23:31:04.976Z,23.40
2022-07-25T23:33:34.645Z,23.60
2022-07-25T23:36:03.013Z,23.80
2022-07-25T23:38:31.205Z,23.90
2022-07-25T23:40:59.282Z,23.90
2022-07-25T23:43:47.252Z,24.00
2022-07-25T23:46:15.709Z,24.00
2022-07-25T23:48:47.784Z,24.00
2022-07-25T23:51:16.620Z,24.00
2022-07-25T23:53:44.755Z,24.00
2022-07-25T23:56:17.249Z,23.90
2022-07-25T23:58:50.033Z,23.90
